Terminal Aerodrome Forecast
Issued by NWS Austin/San Antonio, TX

Home | Current Version | Previous Version | Text Only | Print | Product List | Glossary On
Versions: 1 2 3 4 5 6 7 8 9 10 11 12 13 14 15 16 17 18 19
000
FTUS44 KEWX 041739
TAFAUS
TAF
KAUS 041739Z 0418/0524 19014KT P6SM FEW025 SCT035 BKN250
     FM050700 17005KT P6SM OVC015
     FM051000 17006KT P6SM OVC008
     FM051600 18012KT P6SM BKN025
     FM051800 17014KT P6SM SCT035=

USA.gov is the U.S. government's official web portal to all federal, state and local government web resources and services.